CheckWX is a tool to help pilots better visualize weather data.  It is not intended as a substitute for an official pre-flight weather briefing.

01:59:50 UTC

CYYJ TAF
Victoria International Airport
Victoria, Canada
TAF CYYJ 182338Z 1900/1924 VRB03KT P6SM FEW240 BECMG 1904/1906 29008KT FM191700 VRB03KT P6SM SKC RMK NXT FCST BY 190600Z

Mar-19@
00:00 UTC

Mar-19 @ 00:00 UTC

Mar-19@
04:00 UTC

Mar-19 @ 04:00 UTC

TAF CYYJ 182338Z 1900/1924 VRB03KT P6SM FEW240
Wind
  • Variable at 3 KTS
Cloud Levels
  • Few at 24,000' AGL

Mar-19@
04:00 UTC

Mar-19 @ 04:00 UTC

Mar-19@
17:00 UTC

Mar-19 @ 17:00 UTC

BECMG 1904/1906 29008KT

Becoming

Becoming Conditions expected by Tue, Mar 19, 2019 @ 06:00 UTC

Wind
  • 290° at 8 KTS
Cloud Levels
  • Few at 24,000' AGL

Mar-19@
17:00 UTC

Mar-19 @ 17:00 UTC

Mar-20@
00:00 UTC

Mar-20 @ 00:00 UTC

FM191700 VRB03KT P6SM SKC RMK NXT FCST BY 190600Z

From

From Standard forecast or significant change

Wind
  • Variable at 3 KTS
Cloud Levels
  • Clear skies